createdAt,value
2022-11-13T00:01:12.260Z,98625.59
2022-11-13T00:03:38.964Z,98615.38
2022-11-13T00:06:05.569Z,98624.94
2022-11-13T00:08:32.116Z,98625.59
2022-11-13T00:11:06.427Z,98594.91
2022-11-13T00:13:34.405Z,98594.03
2022-11-13T00:16:03.578Z,98587.66
2022-11-13T00:18:30.579Z,98596.13
2022-11-13T00:20:58.789Z,98635.47
2022-11-13T00:23:25.295Z,98635.00
2022-11-13T00:25:51.815Z,98620.16
2022-11-13T00:28:18.322Z,98604.44
2022-11-13T00:30:44.923Z,98613.91
2022-11-13T00:33:11.837Z,98636.69
2022-11-13T00:35:38.901Z,98609.88
2022-11-13T00:38:05.399Z,98605.19
2022-11-13T00:40:31.931Z,98627.81
2022-11-13T00:42:58.469Z,98623.00
2022-11-13T00:45:24.963Z,98605.97
2022-11-13T00:47:51.482Z,98604.00
2022-11-13T00:50:18.109Z,98608.03
2022-11-13T00:52:47.569Z,98613.63
2022-11-13T00:55:18.159Z,98616.81
2022-11-13T00:57:47.755Z,98614.75
2022-11-13T01:00:16.086Z,98581.41
2022-11-13T01:02:42.571Z,98571.13
2022-11-13T01:05:09.244Z,98601.97
2022-11-13T01:07:37.561Z,98590.31
2022-11-13T01:10:07.876Z,98589.72
2022-11-13T01:12:34.473Z,98598.59
2022-11-13T01:15:01.150Z,98595.78
2022-11-13T01:17:27.753Z,98592.84
2022-11-13T01:19:54.364Z,98585.91
2022-11-13T01:22:20.882Z,98554.41
2022-11-13T01:24:47.411Z,98548.78
2022-11-13T01:27:18.582Z,98538.34
2022-11-13T01:29:48.528Z,98576.66
2022-11-13T01:32:17.902Z,98569.56
2022-11-13T01:34:46.899Z,98553.41
2022-11-13T01:37:13.436Z,98568.47
2022-11-13T01:39:40.025Z,98547.84
2022-11-13T01:42:06.539Z,98554.75
2022-11-13T01:44:50.459Z,98549.59
2022-11-13T01:47:19.594Z,98524.13
2022-11-13T01:49:51.989Z,98555.88
2022-11-13T01:52:21.077Z,98557.13
2022-11-13T01:54:51.827Z,98560.13
2022-11-13T01:57:21.991Z,98526.78
2022-11-13T02:00:00.887Z,98529.25
2022-11-13T02:02:27.398Z,98529.38
2022-11-13T02:04:54.123Z,98527.72
2022-11-13T02:07:22.271Z,98555.22
2022-11-13T02:09:54.927Z,98539.53
2022-11-13T02:12:35.965Z,98545.81
2022-11-13T02:15:05.654Z,98560.13
2022-11-13T02:17:37.506Z,98557.34
2022-11-13T02:20:06.158Z,98556.91
2022-11-13T02:22:52.484Z,98557.19
2022-11-13T02:25:22.777Z,98548.19
2022-11-13T02:27:50.704Z,98541.91
2022-11-13T02:30:26.537Z,98537.47
2022-11-13T02:32:55.600Z,98510.53
2022-11-13T02:35:29.530Z,98532.47
2022-11-13T02:37:58.221Z,98527.47
2022-11-13T02:40:25.089Z,98519.56
2022-11-13T02:42:54.733Z,98509.03
2022-11-13T02:45:24.728Z,98493.31
2022-11-13T02:47:51.811Z,98536.50
2022-11-13T02:50:20.956Z,98524.56
2022-11-13T02:52:47.508Z,98502.22
2022-11-13T02:55:14.124Z,98515.81
2022-11-13T02:57:40.614Z,98505.97
2022-11-13T03:00:13.361Z,98517.75
2022-11-13T03:02:41.214Z,98496.66
2022-11-13T03:05:13.286Z,98499.84
2022-11-13T03:07:40.422Z,98499.41
2022-11-13T03:10:07.603Z,98518.97
2022-11-13T03:12:34.347Z,98513.56
2022-11-13T03:15:01.168Z,98512.03
2022-11-13T03:17:27.919Z,98497.19
2022-11-13T03:19:54.430Z,98502.75
2022-11-13T03:22:23.342Z,98484.44
2022-11-13T03:24:49.866Z,98473.72
2022-11-13T03:27:16.390Z,98460.69
2022-11-13T03:29:43.020Z,98469.31
2022-11-13T03:32:09.560Z,98491.38
2022-11-13T03:34:36.432Z,98489.16
2022-11-13T03:37:02.969Z,98491.22
2022-11-13T03:39:29.456Z,98495.28
2022-11-13T03:41:56.014Z,98464.44
2022-11-13T03:44:22.904Z,98482.22
2022-11-13T03:46:49.496Z,98475.28
2022-11-13T03:49:16.003Z,98473.50
2022-11-13T03:51:42.532Z,98455.84
2022-11-13T03:54:09.080Z,98474.16
2022-11-13T03:56:35.598Z,98475.81
2022-11-13T03:59:02.162Z,98471.25
2022-11-13T04:01:28.725Z,98449.75
2022-11-13T04:03:55.964Z,98453.47
2022-11-13T04:06:22.459Z,98484.03
2022-11-13T04:08:48.989Z,98481.13
2022-11-13T04:11:15.525Z,98490.28
2022-11-13T04:13:42.051Z,98484.75
2022-11-13T04:16:08.798Z,98483.34
2022-11-13T04:18:35.305Z,98435.44
2022-11-13T04:21:04.375Z,98457.66
2022-11-13T04:23:31.629Z,98475.44
2022-11-13T04:25:58.175Z,98444.72
2022-11-13T04:28:27.564Z,98440.72
2022-11-13T04:30:57.107Z,98441.69
2022-11-13T04:33:23.837Z,98441.97
2022-11-13T04:35:50.409Z,98444.63
2022-11-13T04:38:16.948Z,98405.19
2022-11-13T04:40:44.068Z,98428.50
2022-11-13T04:43:10.796Z,98397.56
2022-11-13T04:45:37.700Z,98400.34
2022-11-13T04:48:04.558Z,98438.22
2022-11-13T04:50:31.501Z,98440.72
2022-11-13T04:53:00.997Z,98437.13
2022-11-13T04:55:28.708Z,98430.56
2022-11-13T04:57:55.609Z,98422.50
2022-11-13T05:00:22.791Z,98446.59
2022-11-13T05:02:49.425Z,98441.13
2022-11-13T05:05:16.486Z,98434.34
2022-11-13T05:07:43.019Z,98436.41
2022-11-13T05:10:09.851Z,98455.16
2022-11-13T05:12:36.355Z,98423.81
2022-11-13T05:15:03.713Z,98444.81
2022-11-13T05:17:30.241Z,98389.16
2022-11-13T05:20:00.231Z,98412.59
2022-11-13T05:22:26.774Z,98425.41
2022-11-13T05:24:53.719Z,98443.88
2022-11-13T05:27:20.284Z,98430.97
2022-11-13T05:29:46.800Z,98412.22
2022-11-13T05:32:13.653Z,98429.00
2022-11-13T05:34:40.160Z,98406.88
2022-11-13T05:37:06.663Z,98395.69
2022-11-13T05:39:33.158Z,98397.50
2022-11-13T05:42:02.678Z,98412.78
2022-11-13T05:44:32.114Z,98414.31
2022-11-13T05:46:59.803Z,98387.78
2022-11-13T05:49:26.362Z,98412.09
2022-11-13T05:51:54.638Z,98398.78
2022-11-13T05:54:21.135Z,98383.66
2022-11-13T05:56:47.647Z,98407.91
2022-11-13T05:59:14.620Z,98376.53
2022-11-13T06:01:42.474Z,98401.44
2022-11-13T06:04:10.072Z,98399.06
2022-11-13T06:06:36.877Z,98382.59
2022-11-13T06:09:06.000Z,98395.91
2022-11-13T06:11:33.123Z,98393.97
2022-11-13T06:14:05.458Z,98364.28
2022-11-13T06:16:37.177Z,98380.06
2022-11-13T06:19:06.654Z,98377.84
2022-11-13T06:21:35.353Z,98372.03
2022-11-13T06:24:02.703Z,98379.38
2022-11-13T06:26:37.339Z,98374.50
2022-11-13T06:29:05.406Z,98352.00
2022-11-13T06:31:36.828Z,98346.44
2022-11-13T06:34:04.571Z,98365.53
2022-11-13T06:36:37.454Z,98370.97
2022-11-13T06:39:10.340Z,98368.00
2022-11-13T06:41:38.476Z,98377.16
2022-11-13T06:44:05.176Z,98370.38
2022-11-13T06:46:34.877Z,98338.22
2022-11-13T06:49:04.625Z,98361.06
2022-11-13T06:51:36.594Z,98378.28
2022-11-13T06:54:03.191Z,98368.28
2022-11-13T06:56:30.486Z,98380.91
2022-11-13T06:59:04.011Z,98378.38
2022-11-13T07:01:32.895Z,98359.66
2022-11-13T07:04:07.100Z,98354.09
2022-11-13T07:06:40.148Z,98378.06
2022-11-13T07:09:07.154Z,98366.09
2022-11-13T07:11:34.383Z,98355.00
2022-11-13T07:14:03.990Z,98370.09
2022-11-13T07:16:56.192Z,98370.31
2022-11-13T07:19:20.893Z,98363.91
2022-11-13T07:21:47.411Z,98356.94
2022-11-13T07:24:16.918Z,98343.28
2022-11-13T07:26:43.794Z,98336.66
2022-11-13T07:29:11.479Z,98339.97
2022-11-13T07:31:38.009Z,98334.94
2022-11-13T07:34:04.667Z,98326.22
2022-11-13T07:36:34.043Z,98331.03
2022-11-13T07:39:04.922Z,98347.06
2022-11-13T07:41:34.479Z,98338.63
2022-11-13T07:44:09.400Z,98342.69
2022-11-13T07:46:36.505Z,98343.47
2022-11-13T07:49:03.732Z,98331.53
2022-11-13T07:51:32.405Z,98347.75
2022-11-13T07:53:58.908Z,98334.22
2022-11-13T07:56:25.826Z,98341.38
2022-11-13T07:58:52.403Z,98348.06
2022-11-13T08:01:19.005Z,98348.53
2022-11-13T08:03:45.579Z,98336.84
2022-11-13T08:06:12.072Z,98321.31
2022-11-13T08:08:38.855Z,98346.75
2022-11-13T08:11:07.470Z,98317.59
2022-11-13T08:13:35.105Z,98339.34
2022-11-13T08:16:05.456Z,98350.16
2022-11-13T08:18:33.406Z,98326.69
2022-11-13T08:21:04.290Z,98331.66
2022-11-13T08:23:35.036Z,98303.75
2022-11-13T08:26:06.242Z,98324.25
2022-11-13T08:28:33.325Z,98299.97
2022-11-13T08:31:01.892Z,98321.50
2022-11-13T08:33:28.759Z,98312.06
2022-11-13T08:35:57.760Z,98299.66
2022-11-13T08:38:25.077Z,98295.41
2022-11-13T08:40:52.054Z,98293.16
2022-11-13T08:43:19.599Z,98291.88
2022-11-13T08:45:47.250Z,98298.16
2022-11-13T08:48:13.851Z,98275.09
2022-11-13T08:50:40.675Z,98299.84
2022-11-13T08:53:07.722Z,98289.16
2022-11-13T08:55:34.491Z,98295.69
2022-11-13T08:58:05.037Z,98290.25
2022-11-13T09:00:35.384Z,98275.34
2022-11-13T09:03:04.880Z,98281.88
2022-11-13T09:05:34.441Z,98276.69
2022-11-13T09:08:06.192Z,98275.53
2022-11-13T09:10:35.607Z,98273.56
2022-11-13T09:13:13.008Z,98269.63
2022-11-13T09:15:40.087Z,98274.03
2022-11-13T09:18:06.694Z,98260.78
2022-11-13T09:20:33.912Z,98276.47
2022-11-13T09:23:06.758Z,98272.81
2022-11-13T09:25:38.385Z,98271.72
2022-11-13T09:28:06.257Z,98267.59
2022-11-13T09:30:33.001Z,98263.06
2022-11-13T09:33:02.291Z,98261.97
2022-11-13T09:35:34.998Z,98278.53
2022-11-13T09:38:11.439Z,98272.41
2022-11-13T09:40:47.632Z,98278.28
2022-11-13T09:43:49.385Z,98279.06
2022-11-13T09:46:18.747Z,98285.22
2022-11-13T09:48:57.394Z,98278.19
2022-11-13T09:51:36.451Z,98280.38
2022-11-13T09:54:11.497Z,98300.84
2022-11-13T09:56:43.257Z,98297.72
2022-11-13T09:59:27.479Z,98293.94
2022-11-13T10:01:56.554Z,98299.06
2022-11-13T10:04:41.455Z,98294.53
2022-11-13T10:07:25.366Z,98285.66
2022-11-13T10:10:20.292Z,98282.16
2022-11-13T10:12:51.177Z,98259.03
2022-11-13T10:15:18.957Z,98261.19
2022-11-13T10:18:05.211Z,98271.00
2022-11-13T10:20:49.746Z,98273.78
2022-11-13T10:23:28.754Z,98270.16
2022-11-13T10:25:58.373Z,98270.97
2022-11-13T10:28:49.545Z,98261.72
2022-11-13T10:31:14.254Z,98259.06
2022-11-13T10:33:40.792Z,98264.22
2022-11-13T10:36:07.275Z,98260.03
2022-11-13T10:38:42.834Z,98248.13
2022-11-13T10:41:15.176Z,98241.50
2022-11-13T10:44:21.043Z,98243.84
2022-11-13T10:46:47.721Z,98224.47
2022-11-13T10:49:19.809Z,98234.94
2022-11-13T10:51:58.858Z,98229.38
2022-11-13T10:54:32.535Z,98216.38
2022-11-13T10:57:02.699Z,98223.41
2022-11-13T10:59:41.556Z,98208.38
2022-11-13T11:02:18.013Z,98201.34
2022-11-13T11:04:45.129Z,98207.53
2022-11-13T11:07:20.159Z,98212.25
2022-11-13T11:09:48.694Z,98189.41
2022-11-13T11:12:19.741Z,98191.03
2022-11-13T11:15:03.447Z,98191.44
2022-11-13T11:17:54.010Z,98197.44
2022-11-13T11:20:39.151Z,98189.63
2022-11-13T11:23:21.627Z,98177.06
2022-11-13T11:26:02.253Z,98176.66
2022-11-13T11:28:45.360Z,98171.50
2022-11-13T11:31:34.075Z,98145.75
2022-11-13T11:34:16.070Z,98163.44
2022-11-13T11:37:17.983Z,98156.88
2022-11-13T11:39:52.349Z,98146.16
2022-11-13T11:42:48.189Z,98154.81
2022-11-13T11:45:27.351Z,98147.78
2022-11-13T11:47:54.273Z,98140.78
2022-11-13T11:50:30.701Z,98138.34
2022-11-13T11:53:21.352Z,98127.84
2022-11-13T11:56:11.458Z,98121.88
2022-11-13T11:59:15.759Z,98115.28
2022-11-13T12:02:15.318Z,98084.56
2022-11-13T12:04:55.449Z,98106.03
2022-11-13T12:07:47.839Z,98100.25
2022-11-13T12:10:52.103Z,98099.84
2022-11-13T12:13:32.901Z,98091.41
2022-11-13T12:16:12.031Z,98085.22
2022-11-13T12:18:51.264Z,98051.34
2022-11-13T12:21:43.510Z,98071.88
2022-11-13T12:24:33.631Z,98078.31
2022-11-13T12:27:24.414Z,98067.81
2022-11-13T12:30:20.016Z,98049.31
2022-11-13T12:33:05.342Z,98053.41
2022-11-13T12:35:33.091Z,98048.66
2022-11-13T12:38:12.307Z,98048.00
2022-11-13T12:40:49.585Z,98050.44
2022-11-13T12:43:34.650Z,98043.22
2022-11-13T12:46:08.197Z,98023.88
2022-11-13T12:48:37.159Z,98031.09
2022-11-13T12:51:08.002Z,98034.81
2022-11-13T12:53:52.633Z,98020.63
2022-11-13T12:56:24.866Z,98026.84
2022-11-13T12:59:23.757Z,98018.41
2022-11-13T13:02:08.702Z,98001.97
2022-11-13T13:05:06.921Z,98009.00
2022-11-13T13:08:02.203Z,98005.75
2022-11-13T13:11:08.705Z,98000.63
2022-11-13T13:13:38.301Z,97995.09
2022-11-13T13:16:09.361Z,97998.38
2022-11-13T13:18:38.413Z,97992.19
2022-11-13T13:21:12.033Z,97982.91
2022-11-13T13:23:41.281Z,97973.63
2022-11-13T13:26:28.155Z,97974.25
2022-11-13T13:28:57.417Z,97993.69
2022-11-13T13:31:48.422Z,97990.41
2022-11-13T13:34:42.252Z,97987.81
2022-11-13T13:37:23.959Z,97979.19
2022-11-13T13:39:59.195Z,97988.03
2022-11-13T13:42:47.486Z,97966.97
2022-11-13T13:45:38.651Z,97976.91
2022-11-13T13:48:13.535Z,97982.22
2022-11-13T13:50:45.313Z,97967.81
2022-11-13T13:53:18.774Z,97966.78
2022-11-13T13:55:49.140Z,97971.91
2022-11-13T13:58:19.412Z,97964.13
2022-11-13T14:01:21.280Z,97963.91
2022-11-13T14:03:47.219Z,97956.53
2022-11-13T14:06:22.336Z,97961.50
2022-11-13T14:08:49.055Z,97964.44
2022-11-13T14:11:29.716Z,97958.72
2022-11-13T14:14:16.913Z,97966.19
2022-11-13T14:16:54.694Z,97967.19
2022-11-13T14:19:21.970Z,97958.56
2022-11-13T14:21:56.155Z,97955.75
2022-11-13T14:24:47.997Z,97959.22
2022-11-13T14:27:20.029Z,97943.63
2022-11-13T14:29:46.486Z,97960.06
2022-11-13T14:32:18.624Z,97946.13
2022-11-13T14:34:48.332Z,97938.47
2022-11-13T14:37:39.938Z,97942.13
2022-11-13T14:40:39.150Z,97919.63
2022-11-13T14:43:14.096Z,97932.09
2022-11-13T14:45:40.803Z,97925.63
2022-11-13T14:48:26.203Z,97925.50
2022-11-13T14:51:02.666Z,97924.47
2022-11-13T14:53:38.079Z,97918.53
2022-11-13T14:56:10.604Z,97907.66
2022-11-13T14:58:44.613Z,97883.81
2022-11-13T15:01:15.381Z,97928.75
2022-11-13T15:03:43.786Z,97901.31
2022-11-13T15:06:15.931Z,97934.47
2022-11-13T15:08:43.522Z,97935.78
2022-11-13T15:11:14.472Z,97931.25
2022-11-13T15:13:41.103Z,97905.97
2022-11-13T15:16:15.718Z,97918.13
2022-11-13T15:18:49.848Z,97932.75
2022-11-13T15:21:16.620Z,97926.97
2022-11-13T15:23:43.332Z,97919.16
2022-11-13T15:26:16.166Z,97925.75
2022-11-13T15:28:42.835Z,97900.84
2022-11-13T15:31:17.973Z,97910.53
2022-11-13T15:33:44.606Z,97930.66
2022-11-13T15:36:11.125Z,97901.69
2022-11-13T15:38:38.348Z,97934.75
2022-11-13T15:41:12.778Z,97924.69
2022-11-13T15:43:45.172Z,97917.84
2022-11-13T15:46:17.411Z,97921.34
2022-11-13T15:48:47.598Z,97902.38
2022-11-13T15:51:29.217Z,97928.22
2022-11-13T15:54:01.685Z,97920.38
2022-11-13T15:56:30.044Z,97927.94
2022-11-13T15:58:56.615Z,97925.41
2022-11-13T16:01:23.378Z,97928.03
2022-11-13T16:03:51.044Z,97941.31
2022-11-13T16:06:21.291Z,97936.94
2022-11-13T16:08:48.400Z,97940.09
2022-11-13T16:11:16.990Z,97932.44
2022-11-13T16:13:43.794Z,97916.16
2022-11-13T16:16:17.000Z,97917.34
2022-11-13T16:18:43.518Z,97902.50
2022-11-13T16:21:14.040Z,97915.25
2022-11-13T16:23:40.667Z,97915.59
2022-11-13T16:26:17.664Z,97925.19
2022-11-13T16:29:12.068Z,97914.44
2022-11-13T16:31:30.943Z,97924.59
2022-11-13T16:33:57.445Z,97924.91
2022-11-13T16:36:24.081Z,97906.28
2022-11-13T16:38:50.607Z,97902.97
2022-11-13T16:41:17.220Z,97912.78
2022-11-13T16:43:44.536Z,97918.13
2022-11-13T16:46:31.313Z,97917.31
2022-11-13T16:48:58.433Z,97918.44
2022-11-13T16:51:25.572Z,97922.75
2022-11-13T16:53:52.062Z,97915.53
2022-11-13T16:56:24.891Z,97903.94
2022-11-13T16:58:51.693Z,97917.59
2022-11-13T17:01:20.160Z,97919.06
2022-11-13T17:03:46.662Z,97911.97
2022-11-13T17:06:25.623Z,97921.84
2022-11-13T17:08:53.613Z,97910.47
2022-11-13T17:11:20.291Z,97895.00
2022-11-13T17:13:56.247Z,97911.13
2022-11-13T17:16:24.931Z,97906.81
2022-11-13T17:18:53.455Z,97908.09
2022-11-13T17:21:25.577Z,97910.31
2022-11-13T17:23:56.097Z,97903.31
2022-11-13T17:26:23.082Z,97886.31
2022-11-13T17:28:49.704Z,97887.69
2022-11-13T17:31:16.220Z,97886.97
2022-11-13T17:33:42.838Z,97885.47
2022-11-13T17:36:12.664Z,97889.25
2022-11-13T17:38:44.343Z,97886.59
2022-11-13T17:41:12.707Z,97879.69
2022-11-13T17:43:42.408Z,97879.50
2022-11-13T17:46:14.401Z,97877.31
2022-11-13T17:48:41.626Z,97886.84
2022-11-13T17:51:13.630Z,97873.09
2022-11-13T17:53:40.508Z,97875.13
2022-11-13T17:56:11.843Z,97881.00
2022-11-13T17:58:44.078Z,97881.47
2022-11-13T18:01:13.375Z,97871.28
2022-11-13T18:03:40.273Z,97893.28
2022-11-13T18:06:19.730Z,97876.97
2022-11-13T18:08:46.932Z,97898.31
2022-11-13T18:11:25.829Z,97898.53
2022-11-13T18:13:52.702Z,97895.59
2022-11-13T18:16:25.895Z,97898.19
2022-11-13T18:18:55.523Z,97861.38
2022-11-13T18:21:25.435Z,97872.69
2022-11-13T18:24:04.094Z,97872.56
2022-11-13T18:26:32.039Z,97879.56
2022-11-13T18:28:59.702Z,97912.00
2022-11-13T18:31:26.851Z,97912.44
2022-11-13T18:33:53.607Z,97888.72
2022-11-13T18:36:20.393Z,97911.91
2022-11-13T18:38:47.132Z,97904.59
2022-11-13T18:41:17.083Z,97925.13
2022-11-13T18:43:48.412Z,97913.84
2022-11-13T18:46:17.924Z,97895.69
2022-11-13T18:48:46.354Z,97897.97
2022-11-13T18:51:19.877Z,97883.31
2022-11-13T18:53:48.995Z,97886.06
2022-11-13T18:56:27.831Z,97899.28
2022-11-13T18:58:56.130Z,97897.91
2022-11-13T19:01:30.404Z,97908.34
2022-11-13T19:04:21.607Z,97912.75
2022-11-13T19:06:47.928Z,97898.06
2022-11-13T19:09:16.054Z,97885.44
2022-11-13T19:11:50.252Z,97862.44
2022-11-13T19:14:18.335Z,97886.81
2022-11-13T19:16:44.933Z,97867.09
2022-11-13T19:19:18.640Z,97893.66
2022-11-13T19:21:46.123Z,97879.75
2022-11-13T19:24:16.229Z,97886.69
2022-11-13T19:26:46.653Z,97862.44
2022-11-13T19:29:16.423Z,97881.59
2022-11-13T19:31:47.905Z,97859.56
2022-11-13T19:34:15.214Z,97857.59
2022-11-13T19:36:44.974Z,97859.41
2022-11-13T19:39:14.189Z,97879.00
2022-11-13T19:41:40.868Z,97877.09
2022-11-13T19:44:09.431Z,97882.31
2022-11-13T19:46:35.960Z,97868.22
2022-11-13T19:49:02.671Z,97890.56
2022-11-13T19:51:29.297Z,97878.75
2022-11-13T19:53:58.857Z,97885.16
2022-11-13T19:56:28.551Z,97893.78
2022-11-13T19:58:55.809Z,97883.03
2022-11-13T20:01:25.140Z,97887.88
2022-11-13T20:04:00.228Z,97873.34
2022-11-13T20:06:28.021Z,97874.41
2022-11-13T20:08:54.932Z,97876.81
2022-11-13T20:11:21.646Z,97875.88
2022-11-13T20:13:48.223Z,97882.72
2022-11-13T20:16:21.070Z,97874.22
2022-11-13T20:18:48.124Z,97865.34
2022-11-13T20:21:28.895Z,97867.38
2022-11-13T20:23:57.612Z,97865.03
2022-11-13T20:26:24.985Z,97864.88
2022-11-13T20:28:51.569Z,97841.84
2022-11-13T20:31:23.981Z,97866.81
2022-11-13T20:33:52.512Z,97826.53
2022-11-13T20:36:19.865Z,97841.38
2022-11-13T20:38:53.031Z,97867.91
2022-11-13T20:41:20.771Z,97834.13
2022-11-13T20:43:48.463Z,97859.34
2022-11-13T20:46:20.022Z,97867.16
2022-11-13T20:48:46.966Z,97844.81
2022-11-13T20:51:20.398Z,97870.72
2022-11-13T20:53:47.979Z,97879.97
2022-11-13T20:56:16.057Z,97871.84
2022-11-13T20:58:45.320Z,97867.19
2022-11-13T21:01:18.149Z,97880.53
2022-11-13T21:03:48.749Z,97862.59
2022-11-13T21:06:21.440Z,97863.59
2022-11-13T21:08:48.616Z,97873.38
2022-11-13T21:11:27.660Z,97866.03
2022-11-13T21:13:55.618Z,97818.22
2022-11-13T21:16:22.756Z,97861.91
2022-11-13T21:18:49.431Z,97818.59
2022-11-13T21:21:21.261Z,97835.03
2022-11-13T21:23:50.976Z,97852.06
2022-11-13T21:26:17.595Z,97848.91
2022-11-13T21:28:47.751Z,97808.88
2022-11-13T21:31:19.208Z,97847.03
2022-11-13T21:33:49.284Z,97821.28
2022-11-13T21:36:21.082Z,97843.88
2022-11-13T21:38:54.655Z,97849.47
2022-11-13T21:41:23.223Z,97820.25
2022-11-13T21:44:13.336Z,97848.44
2022-11-13T21:46:45.336Z,97839.44
2022-11-13T21:49:13.339Z,97849.63
2022-11-13T21:51:42.100Z,97846.16
2022-11-13T21:54:09.137Z,97856.59
2022-11-13T21:56:37.759Z,97847.94
2022-11-13T21:59:05.721Z,97841.13
2022-11-13T22:01:38.074Z,97851.69
2022-11-13T22:04:05.923Z,97817.13
2022-11-13T22:06:41.928Z,97831.72
2022-11-13T22:09:19.709Z,97844.63
2022-11-13T22:11:50.086Z,97845.47
2022-11-13T22:14:19.804Z,97834.44
2022-11-13T22:16:51.991Z,97793.84
2022-11-13T22:19:26.475Z,97838.91
2022-11-13T22:21:54.493Z,97830.44
2022-11-13T22:24:21.061Z,97810.13
2022-11-13T22:26:50.744Z,97832.63
2022-11-13T22:29:20.462Z,97781.22
2022-11-13T22:31:49.853Z,97819.31
2022-11-13T22:34:22.476Z,97846.66
2022-11-13T22:36:52.007Z,97791.09
2022-11-13T22:39:19.716Z,97814.41
2022-11-13T22:41:46.308Z,97811.53
2022-11-13T22:44:14.352Z,97831.25
2022-11-13T22:46:40.969Z,97802.56
2022-11-13T22:49:07.669Z,97839.81
2022-11-13T22:51:38.542Z,97837.91
2022-11-13T22:54:12.569Z,97846.34
2022-11-13T22:56:41.257Z,97825.72
2022-11-13T22:59:10.484Z,97842.41
2022-11-13T23:01:41.228Z,97846.88
2022-11-13T23:04:11.833Z,97830.78
2022-11-13T23:06:38.445Z,97824.53
2022-11-13T23:09:05.936Z,97841.34
2022-11-13T23:11:38.031Z,97850.88
2022-11-13T23:14:07.382Z,97829.91
2022-11-13T23:16:34.206Z,97836.16
2022-11-13T23:19:01.953Z,97842.81
2022-11-13T23:21:29.445Z,97816.44
2022-11-13T23:23:56.878Z,97829.97
2022-11-13T23:26:24.860Z,97839.31
2022-11-13T23:28:55.144Z,97837.59
2022-11-13T23:31:25.257Z,97843.06
2022-11-13T23:33:54.564Z,97812.28
2022-11-13T23:36:24.221Z,97830.69
2022-11-13T23:38:51.958Z,97816.44
2022-11-13T23:41:18.566Z,97806.34
2022-11-13T23:44:07.809Z,97852.19
2022-11-13T23:46:31.681Z,97841.84
2022-11-13T23:48:58.239Z,97830.97
2022-11-13T23:51:24.772Z,97812.28
2022-11-13T23:53:53.469Z,97834.81
2022-11-13T23:56:20.027Z,97833.75
2022-11-13T23:58:46.579Z,97835.06
